Terminal Aerodrome Forecast
Issued by NWS Jackson, KY

Home | Current Version | Previous Version | Text Only | Print | Product List | Glossary On
Versions: 1 2 3 4 5 6 7 8 9 10 11 12 13 14 15 16 17 18
000
FTUS43 KJKL 222000 AAA
TAFLOZ
TAF AMD
KLOZ 222002Z 2220/2318 02005KT P6SM BKN020
     FM222200 02005KT P6SM SCT025 BKN045
     FM230300 03003KT P6SM SCT045
     FM230900 00000KT 4SM BR SCT050
     FM231300 04002KT P6SM SCT050=

USA.gov is the U.S. government's official web portal to all federal, state and local government web resources and services.